createdAt,value
2023-05-14T00:01:11.260Z,95409.53
2023-05-14T00:03:39.972Z,95397.75
2023-05-14T00:06:08.135Z,95414.97
2023-05-14T00:08:35.085Z,95388.88
2023-05-14T00:11:02.363Z,95408.88
2023-05-14T00:13:29.474Z,95402.94
2023-05-14T00:15:56.442Z,95401.31
2023-05-14T00:18:23.313Z,95401.38
2023-05-14T00:20:54.627Z,95396.38
2023-05-14T00:23:24.069Z,95379.59
2023-05-14T00:25:51.015Z,95393.31
2023-05-14T00:28:18.010Z,95381.28
2023-05-14T00:30:45.132Z,95372.91
2023-05-14T00:33:12.201Z,95359.38
2023-05-14T00:35:39.218Z,95378.97
2023-05-14T00:38:06.481Z,95373.22
2023-05-14T00:40:34.093Z,95372.09
2023-05-14T00:43:01.559Z,95361.31
2023-05-14T00:45:28.773Z,95359.75
2023-05-14T00:47:55.908Z,95375.84
2023-05-14T00:50:23.351Z,95373.09
2023-05-14T00:52:50.878Z,95375.31
2023-05-14T00:55:19.070Z,95371.75
2023-05-14T00:57:47.200Z,95374.06
2023-05-14T01:00:14.417Z,95367.56
2023-05-14T01:02:41.628Z,95356.88
2023-05-14T01:05:09.277Z,95354.22
2023-05-14T01:08:09.378Z,95359.28
2023-05-14T01:10:50.706Z,95358.47
2023-05-14T01:13:33.047Z,95357.69
2023-05-14T01:16:02.524Z,95344.78
2023-05-14T01:18:30.081Z,95348.25
2023-05-14T01:20:57.113Z,95351.91
2023-05-14T01:23:24.014Z,95365.53
2023-05-14T01:25:50.967Z,95347.59
2023-05-14T01:28:20.648Z,95378.06
2023-05-14T01:31:06.137Z,95383.69
2023-05-14T01:33:35.122Z,95384.16
2023-05-14T01:36:02.708Z,95391.34
2023-05-14T01:38:31.778Z,95373.84
2023-05-14T01:41:00.799Z,95388.41
2023-05-14T01:43:28.588Z,95387.56
2023-05-14T01:45:55.872Z,95377.75
2023-05-14T01:48:22.908Z,95366.81
2023-05-14T01:50:50.036Z,95378.72
2023-05-14T01:53:16.982Z,95373.91
2023-05-14T01:55:44.034Z,95377.69
2023-05-14T01:58:11.186Z,95385.69
2023-05-14T02:00:38.509Z,95383.81
2023-05-14T02:03:05.518Z,95382.75
2023-05-14T02:05:32.883Z,95368.44
2023-05-14T02:07:59.807Z,95385.53
2023-05-14T02:10:26.906Z,95390.91
2023-05-14T02:12:53.818Z,95366.28
2023-05-14T02:15:20.907Z,95382.69
2023-05-14T02:17:48.412Z,95385.72
2023-05-14T02:20:15.772Z,95384.28
2023-05-14T02:22:49.812Z,95389.00
2023-05-14T02:25:16.933Z,95401.41
2023-05-14T02:27:43.980Z,95402.78
2023-05-14T02:30:11.857Z,95398.53
2023-05-14T02:32:39.696Z,95398.41
2023-05-14T02:35:07.334Z,95392.50
2023-05-14T02:37:34.876Z,95408.53
2023-05-14T02:40:01.878Z,95402.22
2023-05-14T02:42:32.572Z,95417.56
2023-05-14T02:44:59.783Z,95413.56
2023-05-14T02:47:27.200Z,95417.78
2023-05-14T02:49:54.336Z,95408.81
2023-05-14T02:52:21.266Z,95418.94
2023-05-14T02:54:48.368Z,95413.50
2023-05-14T02:57:15.381Z,95422.72
2023-05-14T02:59:42.602Z,95412.94
2023-05-14T03:02:10.017Z,95414.38
2023-05-14T03:04:37.721Z,95415.59
2023-05-14T03:07:04.758Z,95413.25
2023-05-14T03:09:31.774Z,95413.31
2023-05-14T03:11:58.716Z,95414.19
2023-05-14T03:14:25.726Z,95408.28
2023-05-14T03:16:52.724Z,95404.91
2023-05-14T03:19:19.870Z,95399.38
2023-05-14T03:21:46.781Z,95391.09
2023-05-14T03:24:13.744Z,95398.53
2023-05-14T03:26:41.209Z,95401.91
2023-05-14T03:29:08.398Z,95401.91
2023-05-14T03:31:35.539Z,95402.47
2023-05-14T03:34:02.849Z,95410.69
2023-05-14T03:36:29.842Z,95410.56
2023-05-14T03:38:56.800Z,95407.47
2023-05-14T03:41:23.688Z,95426.56
2023-05-14T03:43:50.625Z,95418.84
2023-05-14T03:46:17.561Z,95409.13
2023-05-14T03:48:44.684Z,95411.00
2023-05-14T03:51:12.686Z,95414.56
2023-05-14T03:53:39.707Z,95395.41
2023-05-14T03:56:07.297Z,95403.09
2023-05-14T03:58:34.182Z,95412.41
2023-05-14T04:01:01.234Z,95410.28
2023-05-14T04:03:28.496Z,95410.63
2023-05-14T04:05:57.374Z,95399.78
2023-05-14T04:08:24.326Z,95403.19
2023-05-14T04:10:51.638Z,95409.47
2023-05-14T04:13:18.578Z,95417.66
2023-05-14T04:15:45.710Z,95418.28
2023-05-14T04:18:14.078Z,95424.13
2023-05-14T04:20:41.267Z,95424.53
2023-05-14T04:23:08.445Z,95395.72
2023-05-14T04:25:35.481Z,95431.59
2023-05-14T04:28:02.642Z,95428.66
2023-05-14T04:30:29.738Z,95430.69
2023-05-14T04:32:57.059Z,95433.78
2023-05-14T04:35:25.330Z,95438.56
2023-05-14T04:37:52.446Z,95438.31
2023-05-14T04:40:19.364Z,95449.38
2023-05-14T04:42:47.778Z,95455.91
2023-05-14T04:45:14.759Z,95454.84
2023-05-14T04:47:41.860Z,95464.44
2023-05-14T04:50:09.804Z,95463.81
2023-05-14T04:52:38.758Z,95467.88
2023-05-14T04:55:06.517Z,95472.09
2023-05-14T04:57:33.440Z,95476.00
2023-05-14T05:00:00.468Z,95441.66
2023-05-14T05:02:27.567Z,95485.81
2023-05-14T05:04:54.435Z,95487.19
2023-05-14T05:07:21.525Z,95493.28
2023-05-14T05:09:48.374Z,95499.63
2023-05-14T05:12:15.403Z,95492.16
2023-05-14T05:14:42.270Z,95515.44
2023-05-14T05:17:09.232Z,95519.16
2023-05-14T05:19:43.763Z,95502.69
2023-05-14T05:22:11.781Z,95511.19
2023-05-14T05:24:38.750Z,95524.31
2023-05-14T05:27:06.138Z,95512.19
2023-05-14T05:29:33.564Z,95524.31
2023-05-14T05:32:01.068Z,95522.25
2023-05-14T05:34:28.091Z,95527.50
2023-05-14T05:36:55.054Z,95533.91
2023-05-14T05:39:21.968Z,95523.59
2023-05-14T05:41:48.953Z,95510.88
2023-05-14T05:44:15.804Z,95527.38
2023-05-14T05:46:42.822Z,95513.94
2023-05-14T05:49:09.728Z,95528.34
2023-05-14T05:51:36.640Z,95525.09
2023-05-14T05:54:03.778Z,95536.69
2023-05-14T05:56:30.912Z,95535.66
2023-05-14T05:58:57.778Z,95526.13
2023-05-14T06:01:24.807Z,95526.72
2023-05-14T06:03:51.706Z,95504.19
2023-05-14T06:06:19.024Z,95515.81
2023-05-14T06:08:46.037Z,95530.44
2023-05-14T06:11:12.909Z,95533.00
2023-05-14T06:13:39.856Z,95541.78
2023-05-14T06:16:06.920Z,95538.31
2023-05-14T06:18:33.972Z,95516.06
2023-05-14T06:21:00.930Z,95538.66
2023-05-14T06:23:28.171Z,95523.09
2023-05-14T06:25:55.061Z,95488.84
2023-05-14T06:28:22.162Z,95528.09
2023-05-14T06:30:54.069Z,95518.94
2023-05-14T06:33:29.625Z,95524.75
2023-05-14T06:36:05.848Z,95553.06
2023-05-14T06:38:32.845Z,95553.22
2023-05-14T06:40:59.694Z,95547.59
2023-05-14T06:43:26.727Z,95539.75
2023-05-14T06:45:53.769Z,95530.44
2023-05-14T06:48:21.465Z,95537.66
2023-05-14T06:50:49.493Z,95543.88
2023-05-14T06:53:16.702Z,95530.44
2023-05-14T06:55:43.933Z,95514.06
2023-05-14T06:58:12.032Z,95507.81
2023-05-14T07:00:38.895Z,95502.44
2023-05-14T07:03:06.059Z,95523.41
2023-05-14T07:05:32.987Z,95510.88
2023-05-14T07:07:59.831Z,95518.78
2023-05-14T07:10:26.856Z,95521.47
2023-05-14T07:12:53.897Z,95516.38
2023-05-14T07:15:21.236Z,95525.19
2023-05-14T07:17:48.181Z,95533.59
2023-05-14T07:20:15.217Z,95561.28
2023-05-14T07:22:42.128Z,95566.53
2023-05-14T07:25:09.353Z,95558.28
2023-05-14T07:27:36.346Z,95533.56
2023-05-14T07:30:03.653Z,95536.94
2023-05-14T07:32:32.532Z,95546.69
2023-05-14T07:34:59.472Z,95542.38
2023-05-14T07:37:26.472Z,95542.84
2023-05-14T07:39:53.823Z,95536.59
2023-05-14T07:42:32.224Z,95551.91
2023-05-14T07:45:02.011Z,95546.25
2023-05-14T07:47:32.189Z,95548.09
2023-05-14T07:49:59.427Z,95539.28
2023-05-14T07:52:26.777Z,95551.66
2023-05-14T07:54:53.833Z,95550.84
2023-05-14T07:57:20.957Z,95561.28
2023-05-14T07:59:48.615Z,95566.97
2023-05-14T08:02:17.091Z,95561.22
2023-05-14T08:04:44.938Z,95557.59
2023-05-14T08:07:11.929Z,95553.19
2023-05-14T08:09:38.819Z,95557.72
2023-05-14T08:12:08.627Z,95559.75
2023-05-14T08:14:35.670Z,95565.22
2023-05-14T08:17:04.544Z,95558.81
2023-05-14T08:19:31.621Z,95542.50
2023-05-14T08:21:58.467Z,95513.06
2023-05-14T08:24:25.375Z,95533.13
2023-05-14T08:26:53.143Z,95533.31
2023-05-14T08:29:20.108Z,95532.66
2023-05-14T08:31:47.372Z,95526.88
2023-05-14T08:34:14.605Z,95537.31
2023-05-14T08:36:41.567Z,95538.50
2023-05-14T08:39:27.067Z,95524.69
2023-05-14T08:41:55.300Z,95511.41
2023-05-14T08:44:35.448Z,95518.50
2023-05-14T08:47:02.567Z,95497.31
2023-05-14T08:49:37.306Z,95500.56
2023-05-14T08:52:04.810Z,95502.19
2023-05-14T08:54:32.589Z,95514.16
2023-05-14T08:56:59.803Z,95499.50
2023-05-14T08:59:27.214Z,95495.22
2023-05-14T09:01:56.365Z,95510.44
2023-05-14T09:04:24.973Z,95508.09
2023-05-14T09:06:54.026Z,95506.88
2023-05-14T09:09:22.651Z,95504.22
2023-05-14T09:11:51.615Z,95506.34
2023-05-14T09:14:18.541Z,95509.03
2023-05-14T09:16:47.739Z,95496.53
2023-05-14T09:19:15.734Z,95496.34
2023-05-14T09:21:45.724Z,95494.16
2023-05-14T09:24:24.001Z,95497.09
2023-05-14T09:26:53.171Z,95513.16
2023-05-14T09:29:20.876Z,95496.13
2023-05-14T09:31:51.856Z,95485.50
2023-05-14T09:34:30.700Z,95482.00
2023-05-14T09:37:08.525Z,95502.78
2023-05-14T09:39:37.293Z,95499.59
2023-05-14T09:42:04.710Z,95485.00
2023-05-14T09:44:32.254Z,95470.81
2023-05-14T09:46:59.505Z,95470.91
2023-05-14T09:49:27.025Z,95470.50
2023-05-14T09:51:53.948Z,95474.78
2023-05-14T09:54:21.031Z,95472.75
2023-05-14T09:56:48.014Z,95473.75
2023-05-14T09:59:15.257Z,95460.72
2023-05-14T10:01:43.610Z,95473.94
2023-05-14T10:04:11.961Z,95478.75
2023-05-14T10:06:39.914Z,95462.94
2023-05-14T10:09:16.199Z,95449.34
2023-05-14T10:11:45.095Z,95445.16
2023-05-14T10:14:20.889Z,95431.44
2023-05-14T10:16:50.618Z,95433.78
2023-05-14T10:19:21.518Z,95435.50
2023-05-14T10:21:55.815Z,95428.66
2023-05-14T10:24:24.547Z,95428.38
2023-05-14T10:26:52.144Z,95428.09
2023-05-14T10:29:19.074Z,95443.09
2023-05-14T10:31:55.682Z,95438.00
2023-05-14T10:34:43.855Z,95451.19
2023-05-14T10:37:12.525Z,95444.06
2023-05-14T10:39:54.232Z,95441.06
2023-05-14T10:42:29.689Z,95422.09
2023-05-14T10:44:59.715Z,95428.28
2023-05-14T10:47:27.517Z,95431.81
2023-05-14T10:49:56.927Z,95431.28
2023-05-14T10:52:24.897Z,95430.81
2023-05-14T10:55:03.632Z,95435.22
2023-05-14T10:57:32.602Z,95438.38
2023-05-14T11:00:01.295Z,95437.69
2023-05-14T11:02:37.015Z,95406.28
2023-05-14T11:05:10.525Z,95428.59
2023-05-14T11:07:46.736Z,95420.06
2023-05-14T11:10:19.218Z,95428.50
2023-05-14T11:12:48.926Z,95431.44
2023-05-14T11:15:16.762Z,95429.25
2023-05-14T11:17:45.428Z,95425.47
2023-05-14T11:20:13.455Z,95431.25
2023-05-14T11:22:42.399Z,95439.19
2023-05-14T11:25:14.710Z,95423.88
2023-05-14T11:27:44.319Z,95431.34
2023-05-14T11:30:20.117Z,95416.19
2023-05-14T11:32:48.926Z,95411.47
2023-05-14T11:35:17.798Z,95415.75
2023-05-14T11:37:54.144Z,95424.84
2023-05-14T11:40:21.199Z,95425.25
2023-05-14T11:42:51.383Z,95427.09
2023-05-14T11:45:29.942Z,95416.00
2023-05-14T11:47:57.418Z,95390.16
2023-05-14T11:50:24.586Z,95412.03
2023-05-14T11:52:56.800Z,95419.66
2023-05-14T11:55:23.909Z,95411.38
2023-05-14T11:57:51.514Z,95407.84
2023-05-14T12:00:21.911Z,95397.28
2023-05-14T12:02:49.992Z,95403.97
2023-05-14T12:05:17.761Z,95394.69
2023-05-14T12:07:46.002Z,95394.63
2023-05-14T12:10:13.973Z,95400.44
2023-05-14T12:12:45.028Z,95385.28
2023-05-14T12:15:13.570Z,95377.59
2023-05-14T12:17:41.241Z,95365.06
2023-05-14T12:20:10.668Z,95366.63
2023-05-14T12:22:37.768Z,95365.81
2023-05-14T12:25:05.070Z,95340.50
2023-05-14T12:27:32.105Z,95351.63
2023-05-14T12:32:39.449Z,95348.94
2023-05-14T12:35:07.054Z,95349.47
2023-05-14T12:37:36.168Z,95354.31
2023-05-14T12:40:09.661Z,95356.31
2023-05-14T12:42:37.039Z,95330.81
2023-05-14T12:45:07.362Z,95341.19
2023-05-14T12:47:35.018Z,95331.94
2023-05-14T12:50:02.634Z,95333.13
2023-05-14T12:52:38.815Z,95339.03
2023-05-14T12:55:08.810Z,95340.53
2023-05-14T12:57:36.055Z,95333.63
2023-05-14T13:00:07.139Z,95338.97
2023-05-14T13:02:42.873Z,95335.19
2023-05-14T13:05:11.987Z,95345.72
2023-05-14T13:07:39.087Z,95340.00
2023-05-14T13:10:06.935Z,95338.06
2023-05-14T13:12:34.182Z,95342.88
2023-05-14T13:15:01.148Z,95337.06
2023-05-14T13:17:29.194Z,95323.53
2023-05-14T13:19:56.072Z,95327.69
2023-05-14T13:22:23.151Z,95317.72
2023-05-14T13:24:50.101Z,95325.84
2023-05-14T13:27:17.001Z,95311.63
2023-05-14T13:29:44.084Z,95326.06
2023-05-14T13:32:11.309Z,95336.53
2023-05-14T13:34:38.275Z,95321.88
2023-05-14T13:37:05.344Z,95311.00
2023-05-14T13:39:33.135Z,95289.06
2023-05-14T13:42:01.580Z,95317.31
2023-05-14T13:44:29.815Z,95303.53
2023-05-14T13:46:59.584Z,95304.94
2023-05-14T13:49:27.368Z,95299.13
2023-05-14T13:51:54.531Z,95296.44
2023-05-14T13:54:22.310Z,95298.81
2023-05-14T13:56:51.359Z,95305.38
2023-05-14T13:59:18.760Z,95305.19
2023-05-14T14:01:45.771Z,95318.19
2023-05-14T14:04:17.703Z,95322.38
2023-05-14T14:06:48.083Z,95316.91
2023-05-14T14:09:17.111Z,95332.44
2023-05-14T14:11:44.928Z,95326.25
2023-05-14T14:14:12.356Z,95315.16
2023-05-14T14:16:40.832Z,95312.63
2023-05-14T14:19:08.497Z,95302.59
2023-05-14T14:21:36.043Z,95310.44
2023-05-14T14:24:03.083Z,95293.16
2023-05-14T14:26:30.043Z,95302.28
2023-05-14T14:28:56.994Z,95301.59
2023-05-14T14:31:24.093Z,95306.66
2023-05-14T14:33:51.293Z,95288.34
2023-05-14T14:36:18.179Z,95286.34
2023-05-14T14:38:45.241Z,95298.63
2023-05-14T14:41:12.179Z,95296.63
2023-05-14T14:43:40.414Z,95289.34
2023-05-14T14:46:09.204Z,95301.59
2023-05-14T14:48:40.024Z,95298.91
2023-05-14T14:51:11.732Z,95293.72
2023-05-14T14:53:40.401Z,95295.06
2023-05-14T14:56:08.566Z,95276.25
2023-05-14T14:58:35.669Z,95289.88
2023-05-14T15:01:02.603Z,95293.56
2023-05-14T15:03:29.974Z,95283.34
2023-05-14T15:05:57.503Z,95285.47
2023-05-14T15:08:28.819Z,95278.00
2023-05-14T15:10:56.661Z,95275.81
2023-05-14T15:13:25.089Z,95281.84
2023-05-14T15:15:52.796Z,95282.31
2023-05-14T15:18:20.246Z,95283.84
2023-05-14T15:20:47.393Z,95273.34
2023-05-14T15:23:14.498Z,95275.09
2023-05-14T15:25:41.450Z,95276.63
2023-05-14T15:28:08.403Z,95269.31
2023-05-14T15:30:35.585Z,95275.09
2023-05-14T15:33:02.960Z,95264.63
2023-05-14T15:35:30.360Z,95282.66
2023-05-14T15:37:57.478Z,95270.69
2023-05-14T15:40:24.803Z,95286.75
2023-05-14T15:42:52.116Z,95273.56
2023-05-14T15:45:19.228Z,95277.88
2023-05-14T15:47:46.303Z,95270.25
2023-05-14T15:50:13.269Z,95278.25
2023-05-14T15:52:41.599Z,95282.75
2023-05-14T15:55:08.992Z,95269.09
2023-05-14T15:57:36.115Z,95274.28
2023-05-14T16:00:12.889Z,95280.22
2023-05-14T16:02:40.118Z,95275.19
2023-05-14T16:05:08.612Z,95256.63
2023-05-14T16:07:36.486Z,95263.03
2023-05-14T16:10:03.746Z,95260.91
2023-05-14T16:12:32.645Z,95264.47
2023-05-14T16:15:00.051Z,95262.06
2023-05-14T16:17:28.459Z,95261.16
2023-05-14T16:19:56.484Z,95260.94
2023-05-14T16:22:23.708Z,95254.69
2023-05-14T16:24:51.074Z,95258.25
2023-05-14T16:27:19.214Z,95257.84
2023-05-14T16:29:46.227Z,95258.88
2023-05-14T16:32:13.436Z,95259.53
2023-05-14T16:34:40.739Z,95255.97
2023-05-14T16:37:08.174Z,95267.31
2023-05-14T16:39:35.054Z,95253.25
2023-05-14T16:42:02.118Z,95238.91
2023-05-14T16:44:28.968Z,95243.34
2023-05-14T16:46:56.363Z,95244.22
2023-05-14T16:49:23.298Z,95245.06
2023-05-14T16:51:50.395Z,95245.13
2023-05-14T16:54:17.288Z,95246.94
2023-05-14T16:56:48.180Z,95237.03
2023-05-14T16:59:16.301Z,95237.03
2023-05-14T17:01:44.333Z,95223.16
2023-05-14T17:04:11.445Z,95208.78
2023-05-14T17:06:38.367Z,95216.06
2023-05-14T17:09:05.554Z,95200.44
2023-05-14T17:11:32.601Z,95208.34
2023-05-14T17:13:59.559Z,95206.47
2023-05-14T17:16:27.197Z,95186.78
2023-05-14T17:18:54.229Z,95198.53
2023-05-14T17:21:21.237Z,95197.59
2023-05-14T17:23:48.232Z,95182.44
2023-05-14T17:26:15.329Z,95194.31
2023-05-14T17:28:42.515Z,95185.03
2023-05-14T17:31:09.459Z,95180.28
2023-05-14T17:33:36.488Z,95187.91
2023-05-14T17:36:03.665Z,95183.75
2023-05-14T17:38:31.014Z,95178.25
2023-05-14T17:40:57.949Z,95183.72
2023-05-14T17:43:24.882Z,95192.25
2023-05-14T17:45:54.517Z,95193.06
2023-05-14T17:48:23.109Z,95186.28
2023-05-14T17:50:51.800Z,95183.63
2023-05-14T17:53:18.865Z,95186.91
2023-05-14T17:55:45.914Z,95192.41
2023-05-14T17:58:15.492Z,95202.34
2023-05-14T18:00:43.745Z,95182.03
2023-05-14T18:03:11.476Z,95174.59
2023-05-14T18:05:38.790Z,95182.38
2023-05-14T18:08:05.810Z,95199.22
2023-05-14T18:10:32.909Z,95198.16
2023-05-14T18:12:59.858Z,95194.69
2023-05-14T18:15:27.396Z,95205.56
2023-05-14T18:17:54.716Z,95206.41
2023-05-14T18:20:21.893Z,95217.34
2023-05-14T18:22:50.624Z,95192.34
2023-05-14T18:25:17.933Z,95188.41
2023-05-14T18:27:45.534Z,95185.53
2023-05-14T18:30:14.748Z,95187.72
2023-05-14T18:32:44.150Z,95191.28
2023-05-14T18:35:13.066Z,95182.72
2023-05-14T18:37:40.947Z,95174.72
2023-05-14T18:40:09.414Z,95173.66
2023-05-14T18:42:36.359Z,95171.81
2023-05-14T18:45:04.283Z,95173.66
2023-05-14T18:47:34.608Z,95174.31
2023-05-14T18:50:02.188Z,95194.53
2023-05-14T18:52:32.405Z,95187.84
2023-05-14T18:54:59.635Z,95198.84
2023-05-14T18:57:29.734Z,95193.50
2023-05-14T18:59:56.873Z,95189.22
2023-05-14T19:02:24.003Z,95194.88
2023-05-14T19:04:52.875Z,95204.03
2023-05-14T19:07:21.130Z,95209.63
2023-05-14T19:09:48.559Z,95212.13
2023-05-14T19:12:15.509Z,95218.22
2023-05-14T19:14:42.460Z,95210.50
2023-05-14T19:17:09.429Z,95203.81
2023-05-14T19:19:36.676Z,95212.78
2023-05-14T19:22:03.807Z,95204.63
2023-05-14T19:24:30.945Z,95214.47
2023-05-14T19:26:57.969Z,95220.22
2023-05-14T19:29:25.047Z,95226.44
2023-05-14T19:31:52.115Z,95215.09
2023-05-14T19:34:19.096Z,95225.00
2023-05-14T19:36:46.249Z,95246.31
2023-05-14T19:39:13.209Z,95244.13
2023-05-14T19:41:43.004Z,95241.78
2023-05-14T19:44:09.919Z,95236.50
2023-05-14T19:46:37.114Z,95205.97
2023-05-14T19:49:03.967Z,95193.69
2023-05-14T19:51:31.116Z,95201.69
2023-05-14T19:53:57.994Z,95203.28
2023-05-14T19:56:27.014Z,95195.59
2023-05-14T19:58:54.420Z,95204.19
2023-05-14T20:01:21.653Z,95202.81
2023-05-14T20:03:48.775Z,95200.00
2023-05-14T20:06:17.529Z,95205.56
2023-05-14T20:08:47.610Z,95191.00
2023-05-14T20:11:15.701Z,95192.22
2023-05-14T20:13:42.587Z,95180.16
2023-05-14T20:16:09.622Z,95175.22
2023-05-14T20:18:36.614Z,95177.91
2023-05-14T20:21:03.896Z,95195.69
2023-05-14T20:23:30.997Z,95197.00
2023-05-14T20:25:58.135Z,95186.97
2023-05-14T20:28:25.333Z,95198.59
2023-05-14T20:30:52.508Z,95186.25
2023-05-14T20:33:19.427Z,95179.53
2023-05-14T20:35:46.424Z,95181.78
2023-05-14T20:38:13.503Z,95190.34
2023-05-14T20:40:40.461Z,95208.25
2023-05-14T20:43:07.542Z,95198.75
2023-05-14T20:45:34.418Z,95202.41
2023-05-14T20:48:01.528Z,95194.06
2023-05-14T20:50:28.546Z,95180.63
2023-05-14T20:52:55.657Z,95170.03
2023-05-14T20:55:23.197Z,95174.09
2023-05-14T20:57:50.642Z,95172.63
2023-05-14T21:00:18.168Z,95166.00
2023-05-14T21:02:45.294Z,95166.22
2023-05-14T21:05:13.938Z,95166.06
2023-05-14T21:07:41.002Z,95178.44
2023-05-14T21:10:11.115Z,95181.78
2023-05-14T21:12:38.326Z,95183.53
2023-05-14T21:15:05.732Z,95185.53
2023-05-14T21:17:34.916Z,95186.03
2023-05-14T21:20:02.196Z,95182.16
2023-05-14T21:22:31.102Z,95171.31
2023-05-14T21:24:58.073Z,95162.59
2023-05-14T21:27:25.259Z,95169.22
2023-05-14T21:29:52.372Z,95177.84
2023-05-14T21:32:20.352Z,95155.53
2023-05-14T21:34:47.493Z,95171.91
2023-05-14T21:37:15.428Z,95171.06
2023-05-14T21:39:42.548Z,95162.97
2023-05-14T21:42:09.723Z,95151.09
2023-05-14T21:44:37.256Z,95152.63
2023-05-14T21:47:04.830Z,95148.34
2023-05-14T21:49:31.839Z,95153.00
2023-05-14T21:51:58.770Z,95149.78
2023-05-14T21:54:25.714Z,95133.13
2023-05-14T21:56:52.702Z,95146.91
2023-05-14T21:59:19.912Z,95141.00
2023-05-14T22:02:05.571Z,95148.66
2023-05-14T22:04:34.101Z,95140.34
2023-05-14T22:07:01.560Z,95131.03
2023-05-14T22:09:29.075Z,95135.00
2023-05-14T22:11:57.298Z,95144.88
2023-05-14T22:14:26.507Z,95140.34
2023-05-14T22:16:53.589Z,95148.28
2023-05-14T22:19:20.576Z,95128.34
2023-05-14T22:21:47.513Z,95115.44
2023-05-14T22:24:14.376Z,95085.25
2023-05-14T22:26:41.395Z,95119.81
2023-05-14T22:29:08.288Z,95135.00
2023-05-14T22:31:35.402Z,95118.34
2023-05-14T22:34:02.398Z,95110.09
2023-05-14T22:36:29.589Z,95117.84
2023-05-14T22:38:56.531Z,95119.47
2023-05-14T22:41:23.492Z,95099.75
2023-05-14T22:43:50.848Z,95112.81
2023-05-14T22:46:17.997Z,95110.56
2023-05-14T22:48:45.227Z,95099.56
2023-05-14T22:51:12.065Z,95110.22
2023-05-14T22:53:39.088Z,95089.44
2023-05-14T22:56:06.290Z,95102.22
2023-05-14T22:58:33.305Z,95081.34
2023-05-14T23:01:00.484Z,95094.63
2023-05-14T23:03:27.740Z,95082.91
2023-05-14T23:05:54.664Z,95082.25
2023-05-14T23:08:21.637Z,95085.94
2023-05-14T23:10:48.545Z,95105.44
2023-05-14T23:13:15.516Z,95102.19
2023-05-14T23:15:43.039Z,95098.22
2023-05-14T23:18:10.366Z,95083.72
2023-05-14T23:20:37.381Z,95084.50
2023-05-14T23:23:05.172Z,95077.00
2023-05-14T23:25:32.546Z,95067.41
2023-05-14T23:27:59.854Z,95069.22
2023-05-14T23:30:26.748Z,95070.28
2023-05-14T23:32:53.605Z,95064.75
2023-05-14T23:35:20.655Z,95059.59
2023-05-14T23:37:49.477Z,95041.81
2023-05-14T23:40:17.877Z,95039.50
2023-05-14T23:42:44.905Z,95015.25
2023-05-14T23:45:12.653Z,95008.03
2023-05-14T23:47:40.520Z,95010.34
2023-05-14T23:50:07.856Z,95005.13
2023-05-14T23:52:34.781Z,95003.56
2023-05-14T23:55:01.976Z,94995.38
2023-05-14T23:57:31.560Z,94983.94
2023-05-14T23:59:59.033Z,94959.59
